sensor_id;sensor_type;location;lat;lon;timestamp;P1;durP1;ratioP1;P2;durP2;ratioP2
30707;SDS011;17458;48.958;8.284;2023-04-06T00:02:28;6.30;;;5.70;;
30707;SDS011;17458;48.958;8.284;2023-04-06T00:05:12;11.02;;;6.25;;
30707;SDS011;17458;48.958;8.284;2023-04-06T00:07:59;8.75;;;6.30;;
30707;SDS011;17458;48.958;8.284;2023-04-06T00:10:44;6.55;;;5.30;;
30707;SDS011;17458;48.958;8.284;2023-04-06T00:13:28;7.03;;;5.57;;
30707;SDS011;17458;48.958;8.284;2023-04-06T00:16:13;15.70;;;6.28;;
30707;SDS011;17458;48.958;8.284;2023-04-06T00:18:57;13.13;;;6.35;;
30707;SDS011;17458;48.958;8.284;2023-04-06T00:21:41;11.57;;;7.30;;
30707;SDS011;17458;48.958;8.284;2023-04-06T00:24:25;9.07;;;6.43;;
30707;SDS011;17458;48.958;8.284;2023-04-06T00:27:09;7.22;;;6.25;;
30707;SDS011;17458;48.958;8.284;2023-04-06T00:29:53;12.50;;;6.60;;
30707;SDS011;17458;48.958;8.284;2023-04-06T00:32:37;12.05;;;6.93;;
30707;SDS011;17458;48.958;8.284;2023-04-06T00:35:21;7.60;;;5.95;;
30707;SDS011;17458;48.958;8.284;2023-04-06T00:38:05;7.50;;;6.05;;
30707;SDS011;17458;48.958;8.284;2023-04-06T00:40:49;12.20;;;5.95;;
30707;SDS011;17458;48.958;8.284;2023-04-06T00:43:33;8.97;;;5.93;;
30707;SDS011;17458;48.958;8.284;2023-04-06T00:46:18;9.77;;;6.10;;
30707;SDS011;17458;48.958;8.284;2023-04-06T00:49:02;6.70;;;6.00;;
30707;SDS011;17458;48.958;8.284;2023-04-06T00:51:46;10.45;;;6.78;;
30707;SDS011;17458;48.958;8.284;2023-04-06T00:54:32;9.00;;;6.00;;
30707;SDS011;17458;48.958;8.284;2023-04-06T00:57:17;8.02;;;7.13;;
30707;SDS011;17458;48.958;8.284;2023-04-06T01:00:04;12.27;;;6.47;;
30707;SDS011;17458;48.958;8.284;2023-04-06T01:02:49;7.70;;;6.72;;
30707;SDS011;17458;48.958;8.284;2023-04-06T01:05:37;9.87;;;5.97;;
30707;SDS011;17458;48.958;8.284;2023-04-06T01:08:28;10.57;;;6.07;;
30707;SDS011;17458;48.958;8.284;2023-04-06T01:11:26;7.73;;;5.73;;
30707;SDS011;17458;48.958;8.284;2023-04-06T01:14:11;6.40;;;5.43;;
30707;SDS011;17458;48.958;8.284;2023-04-06T01:17:10;6.50;;;5.47;;
30707;SDS011;17458;48.958;8.284;2023-04-06T01:19:55;6.10;;;5.10;;
30707;SDS011;17458;48.958;8.284;2023-04-06T01:22:45;8.50;;;5.47;;
30707;SDS011;17458;48.958;8.284;2023-04-06T01:25:30;6.23;;;5.37;;
30707;SDS011;17458;48.958;8.284;2023-04-06T01:28:25;9.43;;;5.60;;
30707;SDS011;17458;48.958;8.284;2023-04-06T01:31:21;6.17;;;5.23;;
30707;SDS011;17458;48.958;8.284;2023-04-06T01:34:08;6.07;;;5.10;;
30707;SDS011;17458;48.958;8.284;2023-04-06T01:36:53;5.47;;;4.97;;
30707;SDS011;17458;48.958;8.284;2023-04-06T01:39:43;6.10;;;5.50;;
30707;SDS011;17458;48.958;8.284;2023-04-06T01:42:33;5.07;;;4.67;;
30707;SDS011;17458;48.958;8.284;2023-04-06T01:45:17;6.90;;;5.57;;
30707;SDS011;17458;48.958;8.284;2023-04-06T01:48:03;6.77;;;4.80;;
30707;SDS011;17458;48.958;8.284;2023-04-06T01:50:47;5.83;;;5.20;;
30707;SDS011;17458;48.958;8.284;2023-04-06T01:53:37;5.93;;;5.37;;
30707;SDS011;17458;48.958;8.284;2023-04-06T01:56:24;7.80;;;4.87;;
30707;SDS011;17458;48.958;8.284;2023-04-06T01:59:19;5.70;;;4.93;;
30707;SDS011;17458;48.958;8.284;2023-04-06T02:02:03;7.27;;;5.07;;
30707;SDS011;17458;48.958;8.284;2023-04-06T02:04:49;9.47;;;6.10;;
30707;SDS011;17458;48.958;8.284;2023-04-06T02:07:33;16.30;;;8.87;;
30707;SDS011;17458;48.958;8.284;2023-04-06T02:10:18;12.57;;;8.17;;
30707;SDS011;17458;48.958;8.284;2023-04-06T02:13:02;9.83;;;7.87;;
30707;SDS011;17458;48.958;8.284;2023-04-06T02:15:48;10.23;;;6.57;;
30707;SDS011;17458;48.958;8.284;2023-04-06T02:18:32;10.33;;;7.20;;
30707;SDS011;17458;48.958;8.284;2023-04-06T02:21:16;7.53;;;6.80;;
30707;SDS011;17458;48.958;8.284;2023-04-06T02:24:04;11.03;;;7.17;;
30707;SDS011;17458;48.958;8.284;2023-04-06T02:26:49;10.93;;;7.67;;
30707;SDS011;17458;48.958;8.284;2023-04-06T02:29:33;11.17;;;8.03;;
30707;SDS011;17458;48.958;8.284;2023-04-06T02:32:19;11.30;;;7.13;;
30707;SDS011;17458;48.958;8.284;2023-04-06T02:35:03;9.07;;;6.80;;
30707;SDS011;17458;48.958;8.284;2023-04-06T02:37:50;13.53;;;9.03;;
30707;SDS011;17458;48.958;8.284;2023-04-06T02:40:34;9.83;;;7.90;;
30707;SDS011;17458;48.958;8.284;2023-04-06T02:43:27;11.07;;;7.23;;
30707;SDS011;17458;48.958;8.284;2023-04-06T02:46:19;10.10;;;6.87;;
30707;SDS011;17458;48.958;8.284;2023-04-06T02:49:05;10.10;;;7.88;;
30707;SDS011;17458;48.958;8.284;2023-04-06T02:51:51;12.37;;;7.73;;
30707;SDS011;17458;48.958;8.284;2023-04-06T02:54:45;8.73;;;6.77;;
30707;SDS011;17458;48.958;8.284;2023-04-06T02:57:30;7.40;;;6.23;;
30707;SDS011;17458;48.958;8.284;2023-04-06T03:00:15;6.63;;;5.93;;
30707;SDS011;17458;48.958;8.284;2023-04-06T03:03:00;8.40;;;6.30;;
30707;SDS011;17458;48.958;8.284;2023-04-06T03:05:44;8.47;;;6.23;;
30707;SDS011;17458;48.958;8.284;2023-04-06T03:08:30;6.83;;;5.67;;
30707;SDS011;17458;48.958;8.284;2023-04-06T03:11:14;7.70;;;6.83;;
30707;SDS011;17458;48.958;8.284;2023-04-06T03:13:59;8.97;;;6.63;;
30707;SDS011;17458;48.958;8.284;2023-04-06T03:16:44;12.33;;;6.57;;
30707;SDS011;17458;48.958;8.284;2023-04-06T03:19:31;8.73;;;6.77;;
30707;SDS011;17458;48.958;8.284;2023-04-06T03:22:19;7.27;;;6.40;;
30707;SDS011;17458;48.958;8.284;2023-04-06T03:25:05;15.73;;;6.83;;
30707;SDS011;17458;48.958;8.284;2023-04-06T03:27:50;9.50;;;8.03;;
30707;SDS011;17458;48.958;8.284;2023-04-06T03:30:37;8.63;;;6.00;;
30707;SDS011;17458;48.958;8.284;2023-04-06T03:33:21;8.07;;;6.67;;
30707;SDS011;17458;48.958;8.284;2023-04-06T03:36:11;9.27;;;6.43;;
30707;SDS011;17458;48.958;8.284;2023-04-06T03:38:58;8.97;;;6.43;;
30707;SDS011;17458;48.958;8.284;2023-04-06T03:41:43;7.77;;;6.20;;
30707;SDS011;17458;48.958;8.284;2023-04-06T03:44:50;12.27;;;6.67;;
30707;SDS011;17458;48.958;8.284;2023-04-06T03:47:35;12.47;;;7.20;;
30707;SDS011;17458;48.958;8.284;2023-04-06T03:50:22;8.00;;;6.93;;
30707;SDS011;17458;48.958;8.284;2023-04-06T03:53:06;10.83;;;6.87;;
30707;SDS011;17458;48.958;8.284;2023-04-06T03:55:51;8.77;;;6.50;;
30707;SDS011;17458;48.958;8.284;2023-04-06T03:58:35;23.40;;;6.80;;
30707;SDS011;17458;48.958;8.284;2023-04-06T04:01:19;8.13;;;6.37;;
30707;SDS011;17458;48.958;8.284;2023-04-06T04:04:03;12.07;;;6.63;;
30707;SDS011;17458;48.958;8.284;2023-04-06T04:06:49;6.50;;;5.87;;
30707;SDS011;17458;48.958;8.284;2023-04-06T04:09:33;7.23;;;5.67;;
30707;SDS011;17458;48.958;8.284;2023-04-06T04:12:17;11.23;;;6.73;;
30707;SDS011;17458;48.958;8.284;2023-04-06T04:15:01;7.47;;;5.67;;
30707;SDS011;17458;48.958;8.284;2023-04-06T04:17:45;9.67;;;7.10;;
30707;SDS011;17458;48.958;8.284;2023-04-06T04:20:32;18.33;;;12.47;;
30707;SDS011;17458;48.958;8.284;2023-04-06T04:23:17;17.90;;;9.07;;
30707;SDS011;17458;48.958;8.284;2023-04-06T04:26:01;9.17;;;7.43;;
30707;SDS011;17458;48.958;8.284;2023-04-06T04:28:46;13.10;;;6.97;;
30707;SDS011;17458;48.958;8.284;2023-04-06T04:31:32;10.70;;;8.23;;
30707;SDS011;17458;48.958;8.284;2023-04-06T04:34:20;8.77;;;7.90;;
30707;SDS011;17458;48.958;8.284;2023-04-06T04:37:04;9.87;;;7.50;;
30707;SDS011;17458;48.958;8.284;2023-04-06T04:40:01;8.27;;;6.60;;
30707;SDS011;17458;48.958;8.284;2023-04-06T04:42:49;7.10;;;6.30;;
30707;SDS011;17458;48.958;8.284;2023-04-06T04:45:41;13.37;;;7.57;;
30707;SDS011;17458;48.958;8.284;2023-04-06T04:49:00;8.13;;;6.10;;
30707;SDS011;17458;48.958;8.284;2023-04-06T04:51:46;12.97;;;10.03;;
30707;SDS011;17458;48.958;8.284;2023-04-06T04:54:36;11.67;;;8.23;;
30707;SDS011;17458;48.958;8.284;2023-04-06T04:57:21;10.17;;;7.40;;
30707;SDS011;17458;48.958;8.284;2023-04-06T05:00:06;13.77;;;8.73;;
30707;SDS011;17458;48.958;8.284;2023-04-06T05:02:53;7.93;;;7.13;;
30707;SDS011;17458;48.958;8.284;2023-04-06T05:05:41;11.83;;;8.00;;
30707;SDS011;17458;48.958;8.284;2023-04-06T05:08:26;10.50;;;7.53;;
30707;SDS011;17458;48.958;8.284;2023-04-06T05:11:10;8.97;;;7.47;;
30707;SDS011;17458;48.958;8.284;2023-04-06T05:14:02;8.47;;;7.60;;
30707;SDS011;17458;48.958;8.284;2023-04-06T05:16:46;13.17;;;9.20;;
30707;SDS011;17458;48.958;8.284;2023-04-06T05:19:31;15.77;;;8.23;;
30707;SDS011;17458;48.958;8.284;2023-04-06T05:22:15;14.57;;;7.37;;
30707;SDS011;17458;48.958;8.284;2023-04-06T05:25:04;8.50;;;6.47;;
30707;SDS011;17458;48.958;8.284;2023-04-06T05:27:49;7.07;;;6.37;;
30707;SDS011;17458;48.958;8.284;2023-04-06T05:30:53;11.30;;;7.07;;
30707;SDS011;17458;48.958;8.284;2023-04-06T05:33:39;14.40;;;7.27;;
30707;SDS011;17458;48.958;8.284;2023-04-06T05:36:27;11.83;;;7.90;;
30707;SDS011;17458;48.958;8.284;2023-04-06T05:39:11;10.40;;;7.90;;
30707;SDS011;17458;48.958;8.284;2023-04-06T05:42:03;14.27;;;7.03;;
30707;SDS011;17458;48.958;8.284;2023-04-06T05:45:12;7.53;;;6.23;;
30707;SDS011;17458;48.958;8.284;2023-04-06T05:48:02;7.33;;;6.10;;
30707;SDS011;17458;48.958;8.284;2023-04-06T05:50:50;11.37;;;6.57;;
30707;SDS011;17458;48.958;8.284;2023-04-06T05:53:38;10.13;;;5.83;;
30707;SDS011;17458;48.958;8.284;2023-04-06T05:56:23;9.90;;;6.95;;
30707;SDS011;17458;48.958;8.284;2023-04-06T05:59:07;8.10;;;6.45;;
30707;SDS011;17458;48.958;8.284;2023-04-06T06:01:51;10.07;;;6.43;;
30707;SDS011;17458;48.958;8.284;2023-04-06T06:04:37;8.85;;;6.40;;
30707;SDS011;17458;48.958;8.284;2023-04-06T06:07:21;7.55;;;6.38;;
30707;SDS011;17458;48.958;8.284;2023-04-06T06:10:14;10.40;;;6.40;;
30707;SDS011;17458;48.958;8.284;2023-04-06T06:12:59;11.77;;;8.43;;
30707;SDS011;17458;48.958;8.284;2023-04-06T06:15:44;11.30;;;7.00;;
30707;SDS011;17458;48.958;8.284;2023-04-06T06:18:30;12.27;;;7.22;;
30707;SDS011;17458;48.958;8.284;2023-04-06T06:21:14;9.73;;;6.82;;
30707;SDS011;17458;48.958;8.284;2023-04-06T06:24:00;14.48;;;7.00;;
30707;SDS011;17458;48.958;8.284;2023-04-06T06:26:45;6.75;;;5.60;;
30707;SDS011;17458;48.958;8.284;2023-04-06T06:29:31;6.63;;;5.63;;
30707;SDS011;17458;48.958;8.284;2023-04-06T06:32:17;8.88;;;6.18;;
30707;SDS011;17458;48.958;8.284;2023-04-06T06:35:06;8.27;;;5.18;;
30707;SDS011;17458;48.958;8.284;2023-04-06T06:37:51;10.27;;;6.53;;
30707;SDS011;17458;48.958;8.284;2023-04-06T06:40:39;13.80;;;7.10;;
30707;SDS011;17458;48.958;8.284;2023-04-06T06:43:24;8.45;;;6.00;;
30707;SDS011;17458;48.958;8.284;2023-04-06T06:46:18;8.43;;;6.72;;
30707;SDS011;17458;48.958;8.284;2023-04-06T06:49:02;21.80;;;7.78;;
30707;SDS011;17458;48.958;8.284;2023-04-06T06:51:47;9.45;;;6.93;;
30707;SDS011;17458;48.958;8.284;2023-04-06T06:54:31;11.50;;;7.00;;
30707;SDS011;17458;48.958;8.284;2023-04-06T06:57:15;9.70;;;6.40;;
30707;SDS011;17458;48.958;8.284;2023-04-06T06:59:59;8.98;;;6.85;;
30707;SDS011;17458;48.958;8.284;2023-04-06T07:02:44;14.15;;;6.30;;
30707;SDS011;17458;48.958;8.284;2023-04-06T07:05:28;7.95;;;6.63;;
30707;SDS011;17458;48.958;8.284;2023-04-06T07:08:15;12.82;;;8.25;;
30707;SDS011;17458;48.958;8.284;2023-04-06T07:11:00;9.60;;;6.65;;
30707;SDS011;17458;48.958;8.284;2023-04-06T07:13:44;13.00;;;6.40;;
30707;SDS011;17458;48.958;8.284;2023-04-06T07:16:28;11.27;;;7.57;;
30707;SDS011;17458;48.958;8.284;2023-04-06T07:19:13;24.92;;;7.35;;
30707;SDS011;17458;48.958;8.284;2023-04-06T07:21:56;12.93;;;6.55;;
30707;SDS011;17458;48.958;8.284;2023-04-06T07:24:41;10.43;;;7.57;;
30707;SDS011;17458;48.958;8.284;2023-04-06T07:27:25;10.05;;;7.03;;
30707;SDS011;17458;48.958;8.284;2023-04-06T07:30:09;9.35;;;6.93;;
30707;SDS011;17458;48.958;8.284;2023-04-06T07:32:54;9.45;;;6.90;;
30707;SDS011;17458;48.958;8.284;2023-04-06T07:35:43;9.13;;;6.80;;
30707;SDS011;17458;48.958;8.284;2023-04-06T07:38:28;10.65;;;6.55;;
30707;SDS011;17458;48.958;8.284;2023-04-06T07:41:13;9.85;;;5.97;;
30707;SDS011;17458;48.958;8.284;2023-04-06T07:43:58;7.65;;;6.25;;
30707;SDS011;17458;48.958;8.284;2023-04-06T07:46:42;9.07;;;6.38;;
30707;SDS011;17458;48.958;8.284;2023-04-06T07:49:27;12.00;;;6.43;;
30707;SDS011;17458;48.958;8.284;2023-04-06T07:52:12;10.63;;;6.18;;
30707;SDS011;17458;48.958;8.284;2023-04-06T07:54:58;8.63;;;6.32;;
30707;SDS011;17458;48.958;8.284;2023-04-06T07:57:42;13.05;;;6.38;;
30707;SDS011;17458;48.958;8.284;2023-04-06T08:00:26;10.90;;;7.35;;
30707;SDS011;17458;48.958;8.284;2023-04-06T08:03:10;11.27;;;6.78;;
30707;SDS011;17458;48.958;8.284;2023-04-06T08:05:54;11.63;;;6.28;;
30707;SDS011;17458;48.958;8.284;2023-04-06T08:08:39;8.80;;;6.50;;
30707;SDS011;17458;48.958;8.284;2023-04-06T08:11:23;12.38;;;7.00;;
30707;SDS011;17458;48.958;8.284;2023-04-06T08:14:07;8.30;;;6.13;;
30707;SDS011;17458;48.958;8.284;2023-04-06T08:16:51;9.48;;;5.97;;
30707;SDS011;17458;48.958;8.284;2023-04-06T08:19:35;11.27;;;5.95;;
30707;SDS011;17458;48.958;8.284;2023-04-06T08:22:20;9.85;;;6.25;;
30707;SDS011;17458;48.958;8.284;2023-04-06T08:25:03;7.93;;;6.38;;
30707;SDS011;17458;48.958;8.284;2023-04-06T08:27:48;8.18;;;5.95;;
30707;SDS011;17458;48.958;8.284;2023-04-06T08:30:32;8.40;;;5.85;;
30707;SDS011;17458;48.958;8.284;2023-04-06T08:33:16;11.35;;;5.47;;
30707;SDS011;17458;48.958;8.284;2023-04-06T08:36:08;7.85;;;5.18;;
30707;SDS011;17458;48.958;8.284;2023-04-06T08:38:53;6.63;;;5.13;;
30707;SDS011;17458;48.958;8.284;2023-04-06T08:41:37;9.05;;;5.30;;
30707;SDS011;17458;48.958;8.284;2023-04-06T08:44:25;11.75;;;5.70;;
30707;SDS011;17458;48.958;8.284;2023-04-06T08:47:09;8.70;;;5.47;;
30707;SDS011;17458;48.958;8.284;2023-04-06T08:49:54;13.88;;;6.35;;
30707;SDS011;17458;48.958;8.284;2023-04-06T08:52:39;6.85;;;6.15;;
30707;SDS011;17458;48.958;8.284;2023-04-06T08:55:24;10.02;;;6.25;;
30707;SDS011;17458;48.958;8.284;2023-04-06T08:58:08;8.68;;;5.35;;
30707;SDS011;17458;48.958;8.284;2023-04-06T09:00:53;7.00;;;5.50;;
30707;SDS011;17458;48.958;8.284;2023-04-06T09:03:38;11.43;;;7.05;;
30707;SDS011;17458;48.958;8.284;2023-04-06T09:06:24;10.52;;;5.65;;
30707;SDS011;17458;48.958;8.284;2023-04-06T09:09:10;8.48;;;5.93;;
30707;SDS011;17458;48.958;8.284;2023-04-06T09:11:55;11.43;;;6.50;;
30707;SDS011;17458;48.958;8.284;2023-04-06T09:14:45;7.53;;;5.70;;
30707;SDS011;17458;48.958;8.284;2023-04-06T09:17:31;10.27;;;6.05;;
30707;SDS011;17458;48.958;8.284;2023-04-06T09:20:23;11.55;;;5.70;;
30707;SDS011;17458;48.958;8.284;2023-04-06T09:23:18;11.43;;;6.28;;
30707;SDS011;17458;48.958;8.284;2023-04-06T09:26:06;8.10;;;6.75;;
30707;SDS011;17458;48.958;8.284;2023-04-06T09:28:51;10.15;;;5.72;;
30707;SDS011;17458;48.958;8.284;2023-04-06T09:31:37;12.73;;;6.65;;
30707;SDS011;17458;48.958;8.284;2023-04-06T09:34:22;7.70;;;5.97;;
30707;SDS011;17458;48.958;8.284;2023-04-06T09:37:19;8.95;;;6.45;;
30707;SDS011;17458;48.958;8.284;2023-04-06T09:40:06;9.18;;;6.57;;
30707;SDS011;17458;48.958;8.284;2023-04-06T09:42:51;8.23;;;5.63;;
30707;SDS011;17458;48.958;8.284;2023-04-06T09:45:37;9.63;;;6.03;;
30707;SDS011;17458;48.958;8.284;2023-04-06T09:48:21;13.55;;;6.78;;
30707;SDS011;17458;48.958;8.284;2023-04-06T09:51:08;8.45;;;6.55;;
30707;SDS011;17458;48.958;8.284;2023-04-06T09:53:57;7.88;;;6.05;;
30707;SDS011;17458;48.958;8.284;2023-04-06T09:59:48;9.57;;;6.60;;
30707;SDS011;17458;48.958;8.284;2023-04-06T10:05:37;7.32;;;6.03;;
30707;SDS011;17458;48.958;8.284;2023-04-06T10:08:30;10.55;;;5.80;;
30707;SDS011;17458;48.958;8.284;2023-04-06T10:11:16;9.70;;;6.07;;
30707;SDS011;17458;48.958;8.284;2023-04-06T10:14:01;8.90;;;5.78;;
30707;SDS011;17458;48.958;8.284;2023-04-06T10:16:47;10.60;;;6.13;;
30707;SDS011;17458;48.958;8.284;2023-04-06T10:25:56;9.50;;;5.55;;
30707;SDS011;17458;48.958;8.284;2023-04-06T10:28:42;9.45;;;5.35;;
30707;SDS011;17458;48.958;8.284;2023-04-06T10:31:30;6.70;;;4.75;;
30707;SDS011;17458;48.958;8.284;2023-04-06T10:34:14;10.07;;;5.63;;
30707;SDS011;17458;48.958;8.284;2023-04-06T10:36:58;9.70;;;5.75;;
30707;SDS011;17458;48.958;8.284;2023-04-06T10:39:54;8.18;;;5.78;;
30707;SDS011;17458;48.958;8.284;2023-04-06T10:42:44;13.25;;;5.72;;
30707;SDS011;17458;48.958;8.284;2023-04-06T10:45:30;6.72;;;5.15;;
30707;SDS011;17458;48.958;8.284;2023-04-06T10:48:15;7.13;;;5.30;;
30707;SDS011;17458;48.958;8.284;2023-04-06T10:51:00;12.02;;;5.57;;
30707;SDS011;17458;48.958;8.284;2023-04-06T10:53:45;9.70;;;6.82;;
30707;SDS011;17458;48.958;8.284;2023-04-06T10:56:31;6.80;;;4.88;;
30707;SDS011;17458;48.958;8.284;2023-04-06T10:59:20;7.25;;;4.88;;
30707;SDS011;17458;48.958;8.284;2023-04-06T11:02:08;7.53;;;4.80;;
30707;SDS011;17458;48.958;8.284;2023-04-06T11:04:58;7.63;;;5.32;;
30707;SDS011;17458;48.958;8.284;2023-04-06T11:07:43;14.40;;;6.65;;
30707;SDS011;17458;48.958;8.284;2023-04-06T11:10:28;9.40;;;5.28;;
30707;SDS011;17458;48.958;8.284;2023-04-06T11:13:13;8.18;;;4.97;;
30707;SDS011;17458;48.958;8.284;2023-04-06T11:15:57;5.50;;;4.45;;
30707;SDS011;17458;48.958;8.284;2023-04-06T11:18:48;10.57;;;5.50;;
30707;SDS011;17458;48.958;8.284;2023-04-06T11:21:34;6.05;;;4.25;;
30707;SDS011;17458;48.958;8.284;2023-04-06T11:24:23;6.70;;;5.05;;
30707;SDS011;17458;48.958;8.284;2023-04-06T11:27:08;6.65;;;4.60;;
30707;SDS011;17458;48.958;8.284;2023-04-06T11:29:52;5.97;;;4.78;;
30707;SDS011;17458;48.958;8.284;2023-04-06T11:32:40;9.80;;;4.15;;
30707;SDS011;17458;48.958;8.284;2023-04-06T11:35:28;8.70;;;5.00;;
30707;SDS011;17458;48.958;8.284;2023-04-06T11:38:14;9.18;;;5.28;;
30707;SDS011;17458;48.958;8.284;2023-04-06T11:41:00;10.65;;;5.20;;
30707;SDS011;17458;48.958;8.284;2023-04-06T11:43:48;7.45;;;5.03;;
30707;SDS011;17458;48.958;8.284;2023-04-06T11:46:32;13.43;;;6.05;;
30707;SDS011;17458;48.958;8.284;2023-04-06T11:49:16;8.18;;;5.22;;
30707;SDS011;17458;48.958;8.284;2023-04-06T11:52:01;13.35;;;5.38;;
30707;SDS011;17458;48.958;8.284;2023-04-06T11:54:47;7.65;;;5.03;;
30707;SDS011;17458;48.958;8.284;2023-04-06T11:57:32;7.13;;;4.93;;
30707;SDS011;17458;48.958;8.284;2023-04-06T12:00:18;7.75;;;5.00;;
30707;SDS011;17458;48.958;8.284;2023-04-06T12:03:02;6.65;;;4.95;;
30707;SDS011;17458;48.958;8.284;2023-04-06T12:05:46;7.60;;;5.00;;
30707;SDS011;17458;48.958;8.284;2023-04-06T12:08:30;7.25;;;4.78;;
30707;SDS011;17458;48.958;8.284;2023-04-06T12:11:14;9.23;;;5.90;;
30707;SDS011;17458;48.958;8.284;2023-04-06T12:13:59;7.47;;;6.10;;
30707;SDS011;17458;48.958;8.284;2023-04-06T12:16:45;9.27;;;5.53;;
30707;SDS011;17458;48.958;8.284;2023-04-06T12:19:30;11.45;;;6.22;;
30707;SDS011;17458;48.958;8.284;2023-04-06T12:22:14;7.28;;;5.10;;
30707;SDS011;17458;48.958;8.284;2023-04-06T12:24:59;8.27;;;5.15;;
30707;SDS011;17458;48.958;8.284;2023-04-06T12:27:43;8.27;;;4.55;;
30707;SDS011;17458;48.958;8.284;2023-04-06T12:30:27;6.72;;;4.57;;
30707;SDS011;17458;48.958;8.284;2023-04-06T12:33:11;5.93;;;4.30;;
30707;SDS011;17458;48.958;8.284;2023-04-06T12:35:55;4.93;;;3.63;;
30707;SDS011;17458;48.958;8.284;2023-04-06T12:38:40;7.13;;;4.70;;
30707;SDS011;17458;48.958;8.284;2023-04-06T12:41:24;7.82;;;4.43;;
30707;SDS011;17458;48.958;8.284;2023-04-06T12:44:08;6.35;;;4.82;;
30707;SDS011;17458;48.958;8.284;2023-04-06T12:46:52;7.60;;;4.13;;
30707;SDS011;17458;48.958;8.284;2023-04-06T12:49:37;8.00;;;4.68;;
30707;SDS011;17458;48.958;8.284;2023-04-06T12:52:21;7.43;;;4.53;;
30707;SDS011;17458;48.958;8.284;2023-04-06T12:55:06;6.78;;;4.55;;
30707;SDS011;17458;48.958;8.284;2023-04-06T12:57:51;7.03;;;3.88;;
30707;SDS011;17458;48.958;8.284;2023-04-06T13:00:35;5.07;;;4.07;;
30707;SDS011;17458;48.958;8.284;2023-04-06T13:03:19;7.80;;;4.40;;
30707;SDS011;17458;48.958;8.284;2023-04-06T13:06:04;5.95;;;3.90;;
30707;SDS011;17458;48.958;8.284;2023-04-06T13:08:49;7.80;;;4.30;;
30707;SDS011;17458;48.958;8.284;2023-04-06T13:11:34;6.38;;;3.70;;
30707;SDS011;17458;48.958;8.284;2023-04-06T13:14:18;7.57;;;4.35;;
30707;SDS011;17458;48.958;8.284;2023-04-06T13:17:02;8.10;;;4.25;;
30707;SDS011;17458;48.958;8.284;2023-04-06T13:19:47;5.43;;;4.03;;
30707;SDS011;17458;48.958;8.284;2023-04-06T13:22:31;6.30;;;4.00;;
30707;SDS011;17458;48.958;8.284;2023-04-06T13:25:18;9.77;;;4.75;;
30707;SDS011;17458;48.958;8.284;2023-04-06T13:28:03;6.57;;;4.63;;
30707;SDS011;17458;48.958;8.284;2023-04-06T13:30:48;7.82;;;3.92;;
30707;SDS011;17458;48.958;8.284;2023-04-06T13:33:33;12.82;;;5.35;;
30707;SDS011;17458;48.958;8.284;2023-04-06T13:36:18;11.30;;;6.10;;
30707;SDS011;17458;48.958;8.284;2023-04-06T13:39:02;11.05;;;3.78;;
30707;SDS011;17458;48.958;8.284;2023-04-06T13:41:47;5.32;;;3.55;;
30707;SDS011;17458;48.958;8.284;2023-04-06T13:44:31;6.75;;;4.38;;
30707;SDS011;17458;48.958;8.284;2023-04-06T13:47:15;6.78;;;4.38;;
30707;SDS011;17458;48.958;8.284;2023-04-06T13:49:59;11.93;;;5.07;;
30707;SDS011;17458;48.958;8.284;2023-04-06T13:52:44;9.90;;;4.80;;
30707;SDS011;17458;48.958;8.284;2023-04-06T13:55:28;8.40;;;4.78;;
30707;SDS011;17458;48.958;8.284;2023-04-06T13:58:13;7.70;;;4.70;;
30707;SDS011;17458;48.958;8.284;2023-04-06T14:03:48;9.98;;;4.70;;
30707;SDS011;17458;48.958;8.284;2023-04-06T14:06:33;7.25;;;4.93;;
30707;SDS011;17458;48.958;8.284;2023-04-06T14:09:17;15.95;;;4.97;;
30707;SDS011;17458;48.958;8.284;2023-04-06T14:12:01;11.13;;;5.93;;
30707;SDS011;17458;48.958;8.284;2023-04-06T14:14:45;6.55;;;4.80;;
30707;SDS011;17458;48.958;8.284;2023-04-06T14:17:29;7.72;;;4.25;;
30707;SDS011;17458;48.958;8.284;2023-04-06T14:20:13;6.85;;;4.90;;
30707;SDS011;17458;48.958;8.284;2023-04-06T14:23:02;7.28;;;4.90;;
30707;SDS011;17458;48.958;8.284;2023-04-06T14:25:46;7.38;;;5.00;;
30707;SDS011;17458;48.958;8.284;2023-04-06T14:28:31;7.97;;;4.32;;
30707;SDS011;17458;48.958;8.284;2023-04-06T14:31:16;7.00;;;4.95;;
30707;SDS011;17458;48.958;8.284;2023-04-06T14:34:01;13.93;;;4.97;;
30707;SDS011;17458;48.958;8.284;2023-04-06T14:36:46;11.80;;;5.82;;
30707;SDS011;17458;48.958;8.284;2023-04-06T14:39:30;10.95;;;5.65;;
30707;SDS011;17458;48.958;8.284;2023-04-06T14:42:13;13.57;;;7.15;;
30707;SDS011;17458;48.958;8.284;2023-04-06T14:44:58;10.25;;;6.47;;
30707;SDS011;17458;48.958;8.284;2023-04-06T14:47:42;12.15;;;6.18;;
30707;SDS011;17458;48.958;8.284;2023-04-06T14:50:26;9.75;;;5.22;;
30707;SDS011;17458;48.958;8.284;2023-04-06T14:53:10;15.40;;;7.25;;
30707;SDS011;17458;48.958;8.284;2023-04-06T14:55:55;10.40;;;5.18;;
30707;SDS011;17458;48.958;8.284;2023-04-06T14:58:40;14.55;;;8.13;;
30707;SDS011;17458;48.958;8.284;2023-04-06T15:01:24;10.23;;;6.25;;
30707;SDS011;17458;48.958;8.284;2023-04-06T15:04:08;9.35;;;6.03;;
30707;SDS011;17458;48.958;8.284;2023-04-06T15:06:52;13.35;;;5.97;;
30707;SDS011;17458;48.958;8.284;2023-04-06T15:09:36;12.13;;;4.88;;
30707;SDS011;17458;48.958;8.284;2023-04-06T15:12:20;12.80;;;6.18;;
30707;SDS011;17458;48.958;8.284;2023-04-06T15:15:04;11.95;;;6.55;;
30707;SDS011;17458;48.958;8.284;2023-04-06T15:17:48;13.55;;;6.35;;
30707;SDS011;17458;48.958;8.284;2023-04-06T15:20:33;13.75;;;6.32;;
30707;SDS011;17458;48.958;8.284;2023-04-06T15:23:17;12.45;;;7.65;;
30707;SDS011;17458;48.958;8.284;2023-04-06T15:26:01;11.45;;;6.20;;
30707;SDS011;17458;48.958;8.284;2023-04-06T15:28:46;11.73;;;7.10;;
30707;SDS011;17458;48.958;8.284;2023-04-06T15:31:29;11.48;;;6.95;;
30707;SDS011;17458;48.958;8.284;2023-04-06T15:34:13;11.60;;;6.35;;
30707;SDS011;17458;48.958;8.284;2023-04-06T15:37:01;11.05;;;6.80;;
30707;SDS011;17458;48.958;8.284;2023-04-06T15:39:45;11.10;;;6.50;;
30707;SDS011;17458;48.958;8.284;2023-04-06T15:42:29;9.98;;;6.18;;
30707;SDS011;17458;48.958;8.284;2023-04-06T15:45:13;8.90;;;5.70;;
30707;SDS011;17458;48.958;8.284;2023-04-06T15:47:57;12.77;;;7.60;;
30707;SDS011;17458;48.958;8.284;2023-04-06T15:50:41;12.45;;;6.55;;
30707;SDS011;17458;48.958;8.284;2023-04-06T15:53:26;11.57;;;6.07;;
30707;SDS011;17458;48.958;8.284;2023-04-06T15:56:10;19.00;;;6.45;;
30707;SDS011;17458;48.958;8.284;2023-04-06T15:58:56;11.82;;;6.25;;
30707;SDS011;17458;48.958;8.284;2023-04-06T16:01:40;21.73;;;6.22;;
30707;SDS011;17458;48.958;8.284;2023-04-06T16:04:25;9.35;;;6.15;;
30707;SDS011;17458;48.958;8.284;2023-04-06T16:07:09;20.17;;;6.35;;
30707;SDS011;17458;48.958;8.284;2023-04-06T16:09:53;13.18;;;6.85;;
30707;SDS011;17458;48.958;8.284;2023-04-06T16:12:37;13.45;;;6.43;;
30707;SDS011;17458;48.958;8.284;2023-04-06T16:15:22;12.40;;;4.70;;
30707;SDS011;17458;48.958;8.284;2023-04-06T16:18:06;7.43;;;5.13;;
30707;SDS011;17458;48.958;8.284;2023-04-06T16:20:50;6.90;;;5.03;;
30707;SDS011;17458;48.958;8.284;2023-04-06T16:23:34;7.13;;;4.65;;
30707;SDS011;17458;48.958;8.284;2023-04-06T16:26:20;5.50;;;4.25;;
30707;SDS011;17458;48.958;8.284;2023-04-06T16:29:04;7.90;;;5.18;;
30707;SDS011;17458;48.958;8.284;2023-04-06T16:31:49;10.32;;;5.32;;
30707;SDS011;17458;48.958;8.284;2023-04-06T16:34:33;8.95;;;4.95;;
30707;SDS011;17458;48.958;8.284;2023-04-06T16:37:18;14.20;;;5.00;;
30707;SDS011;17458;48.958;8.284;2023-04-06T16:40:02;10.93;;;4.82;;
30707;SDS011;17458;48.958;8.284;2023-04-06T16:42:46;6.95;;;4.88;;
30707;SDS011;17458;48.958;8.284;2023-04-06T16:45:30;8.85;;;5.80;;
30707;SDS011;17458;48.958;8.284;2023-04-06T16:48:14;12.98;;;5.72;;
30707;SDS011;17458;48.958;8.284;2023-04-06T16:51:02;13.23;;;5.15;;